createdAt,value
2022-10-18T00:02:14.665Z,89.09
2022-10-18T00:04:44.406Z,89.72
2022-10-18T00:07:14.307Z,88.85
2022-10-18T00:09:44.054Z,88.49
2022-10-18T00:12:13.515Z,89.11
2022-10-18T00:14:43.566Z,88.00
2022-10-18T00:17:13.635Z,89.98
2022-10-18T00:19:44.134Z,89.66
2022-10-18T00:22:13.651Z,89.42
2022-10-18T00:24:43.792Z,89.24
2022-10-18T00:27:13.694Z,88.41
2022-10-18T00:29:43.820Z,88.23
2022-10-18T00:32:13.282Z,88.78
2022-10-18T00:34:43.028Z,89.32
2022-10-18T00:37:12.771Z,89.44
2022-10-18T00:39:43.023Z,89.20
2022-10-18T00:42:20.666Z,88.86
2022-10-18T00:44:53.751Z,88.38
2022-10-18T00:47:23.525Z,88.61
2022-10-18T00:49:56.679Z,88.29
2022-10-18T00:52:32.605Z,89.00
2022-10-18T00:57:52.630Z,88.28
2022-10-18T01:00:22.662Z,87.75
2022-10-18T01:02:52.813Z,87.63
2022-10-18T01:05:23.999Z,87.26
2022-10-18T01:08:11.004Z,88.12
2022-10-18T01:10:51.816Z,88.34
2022-10-18T01:13:42.567Z,88.34
2022-10-18T01:16:40.134Z,88.63
2022-10-18T01:19:21.663Z,88.47
2022-10-18T01:22:00.434Z,87.80
2022-10-18T01:24:41.193Z,88.25
2022-10-18T01:27:40.516Z,88.45
2022-10-18T01:30:35.105Z,87.84
2022-10-18T01:33:15.778Z,87.53
2022-10-18T01:36:03.347Z,87.53
2022-10-18T01:38:35.537Z,87.79
2022-10-18T01:41:11.757Z,87.30
2022-10-18T01:43:41.258Z,87.78
2022-10-18T01:46:13.471Z,87.47
2022-10-18T01:48:43.633Z,88.48
2022-10-18T01:51:13.382Z,88.84
2022-10-18T01:53:43.122Z,87.78
2022-10-18T01:56:36.485Z,88.60
2022-10-18T01:59:24.325Z,88.29
2022-10-18T02:02:25.267Z,87.43
2022-10-18T02:05:09.943Z,87.50
2022-10-18T02:08:05.659Z,87.90
2022-10-18T02:10:34.609Z,87.96
2022-10-18T02:13:05.229Z,87.35
2022-10-18T02:15:38.320Z,87.56
2022-10-18T02:18:15.367Z,87.87
2022-10-18T02:20:46.557Z,87.76
2022-10-18T02:23:19.372Z,87.67
2022-10-18T02:25:49.221Z,87.92
2022-10-18T02:28:19.118Z,87.14
2022-10-18T02:30:52.224Z,87.07
2022-10-18T02:33:27.658Z,86.79
2022-10-18T02:36:00.448Z,87.11
2022-10-18T02:38:32.328Z,87.17
2022-10-18T02:41:02.527Z,86.86
2022-10-18T02:43:32.586Z,87.04
2022-10-18T02:46:03.148Z,87.21
2022-10-18T02:48:32.975Z,87.21
2022-10-18T02:51:02.726Z,87.03
2022-10-18T02:53:32.475Z,87.03
2022-10-18T02:56:03.215Z,87.23
2022-10-18T02:58:32.975Z,87.85
2022-10-18T03:01:02.738Z,87.85
2022-10-18T03:03:32.228Z,87.91
2022-10-18T03:06:01.991Z,87.66
2022-10-18T03:08:31.754Z,87.22
2022-10-18T03:11:01.516Z,87.55
2022-10-18T03:13:31.317Z,87.61
2022-10-18T03:16:01.915Z,87.29
2022-10-18T03:18:31.665Z,87.12
2022-10-18T03:21:06.686Z,87.24
2022-10-18T03:23:36.439Z,87.16
2022-10-18T03:26:07.721Z,86.73
2022-10-18T03:28:37.575Z,87.68
2022-10-18T03:31:07.356Z,88.49
2022-10-18T03:33:37.134Z,87.67
2022-10-18T03:36:08.214Z,87.86
2022-10-18T03:38:37.964Z,88.22
2022-10-18T03:41:07.847Z,88.87
2022-10-18T03:43:37.658Z,88.15
2022-10-18T03:46:09.851Z,87.96
2022-10-18T03:48:39.672Z,88.12
2022-10-18T03:51:09.722Z,88.69
2022-10-18T03:53:39.741Z,88.07
2022-10-18T03:56:11.401Z,88.73
2022-10-18T03:58:41.143Z,88.26
2022-10-18T04:01:10.965Z,88.10
2022-10-18T04:03:40.713Z,88.18
2022-10-18T04:06:11.752Z,87.75
2022-10-18T04:08:41.508Z,88.00
2022-10-18T04:11:12.080Z,88.28
2022-10-18T04:13:41.826Z,88.29
2022-10-18T04:16:11.366Z,88.87
2022-10-18T04:18:41.103Z,88.16
2022-10-18T04:21:10.594Z,87.75
2022-10-18T04:23:40.336Z,87.62
2022-10-18T04:26:11.278Z,87.62
2022-10-18T04:28:41.167Z,87.75
2022-10-18T04:31:12.406Z,87.21
2022-10-18T04:33:42.196Z,87.60
2022-10-18T04:36:11.644Z,87.60
2022-10-18T04:38:41.109Z,88.27
2022-10-18T04:41:10.553Z,87.34
2022-10-18T04:43:40.671Z,88.12
2022-10-18T04:46:11.537Z,88.58
2022-10-18T04:48:41.368Z,88.93
2022-10-18T04:51:11.096Z,88.09
2022-10-18T04:53:40.852Z,87.80
2022-10-18T04:56:11.512Z,88.24
2022-10-18T04:58:41.320Z,87.80
2022-10-18T05:01:11.124Z,87.84
2022-10-18T05:03:40.990Z,87.71
2022-10-18T05:06:11.519Z,87.46
2022-10-18T05:08:41.822Z,87.79
2022-10-18T05:11:11.568Z,86.73
2022-10-18T05:13:41.496Z,87.07
2022-10-18T05:16:11.476Z,87.27
2022-10-18T05:18:43.020Z,87.34
2022-10-18T05:21:12.784Z,87.64
2022-10-18T05:23:42.302Z,88.30
2022-10-18T05:26:11.748Z,87.33
2022-10-18T05:28:41.692Z,87.85
2022-10-18T05:31:12.222Z,88.39
2022-10-18T05:33:42.014Z,86.74
2022-10-18T05:36:11.854Z,86.74
2022-10-18T05:38:43.361Z,86.97
2022-10-18T05:41:13.862Z,87.26
2022-10-18T05:43:43.611Z,87.90
2022-10-18T05:46:15.353Z,87.88
2022-10-18T05:48:45.530Z,88.90
2022-10-18T05:51:15.297Z,87.85
2022-10-18T05:53:45.188Z,87.37
2022-10-18T05:56:15.272Z,88.11
2022-10-18T05:58:45.006Z,87.75
2022-10-18T06:01:14.793Z,87.42
2022-10-18T06:03:44.627Z,86.53
2022-10-18T06:06:15.508Z,86.84
2022-10-18T06:08:45.539Z,87.36
2022-10-18T06:11:18.173Z,87.45
2022-10-18T06:13:52.305Z,88.10
2022-10-18T06:16:25.442Z,87.69
2022-10-18T06:18:56.624Z,88.46
2022-10-18T06:21:26.541Z,87.51
2022-10-18T06:23:59.399Z,87.82
2022-10-18T06:26:29.907Z,87.91
2022-10-18T06:28:59.778Z,88.10
2022-10-18T06:31:29.579Z,87.77
2022-10-18T06:33:59.455Z,87.14
2022-10-18T06:36:29.473Z,86.73
2022-10-18T06:38:59.954Z,87.31
2022-10-18T06:41:29.699Z,87.00
2022-10-18T06:44:02.780Z,87.00
2022-10-18T06:46:33.225Z,87.29
2022-10-18T06:49:02.984Z,87.32
2022-10-18T06:51:33.138Z,87.89
2022-10-18T06:54:17.583Z,87.30
2022-10-18T06:56:35.089Z,87.66
2022-10-18T06:59:05.687Z,87.97
2022-10-18T07:01:35.510Z,87.17
2022-10-18T07:04:06.523Z,86.54
2022-10-18T07:06:36.370Z,86.71
2022-10-18T07:09:06.123Z,85.94
2022-10-18T07:11:36.467Z,86.81
2022-10-18T07:14:08.810Z,85.93
2022-10-18T07:16:39.312Z,86.58
2022-10-18T07:19:09.054Z,85.84
2022-10-18T07:21:39.123Z,86.41
2022-10-18T07:24:11.090Z,86.41
2022-10-18T07:26:42.312Z,86.60
2022-10-18T07:29:13.404Z,86.54
2022-10-18T07:31:43.190Z,86.20
2022-10-18T07:34:14.794Z,86.06
2022-10-18T07:36:44.905Z,87.01
2022-10-18T07:39:14.753Z,87.29
2022-10-18T07:41:44.852Z,86.75
2022-10-18T07:44:14.600Z,86.43
2022-10-18T07:46:44.653Z,86.52
2022-10-18T07:49:14.408Z,85.50
2022-10-18T07:51:44.242Z,85.31
2022-10-18T07:54:13.985Z,85.31
2022-10-18T07:56:44.218Z,84.84
2022-10-18T07:59:14.039Z,84.80
2022-10-18T08:01:43.830Z,85.20
2022-10-18T08:04:16.365Z,85.22
2022-10-18T08:06:45.070Z,85.96
2022-10-18T08:09:14.973Z,85.37
2022-10-18T08:11:45.036Z,85.60
2022-10-18T08:14:15.323Z,85.27
2022-10-18T08:16:45.090Z,84.58
2022-10-18T08:19:14.816Z,83.38
2022-10-18T08:21:44.578Z,83.37
2022-10-18T08:24:14.204Z,83.75
2022-10-18T08:26:43.947Z,84.13
2022-10-18T08:29:31.663Z,84.13
2022-10-18T08:31:45.187Z,84.11
2022-10-18T08:34:19.521Z,83.38
2022-10-18T08:36:46.158Z,82.43
2022-10-18T08:39:15.974Z,83.50
2022-10-18T08:41:49.038Z,82.54
2022-10-18T08:44:30.546Z,82.35
2022-10-18T08:47:03.874Z,82.42
2022-10-18T08:49:48.457Z,82.30
2022-10-18T08:55:21.443Z,82.82
2022-10-18T08:57:52.222Z,80.58
2022-10-18T09:00:25.219Z,80.41
2022-10-18T09:03:16.082Z,80.02
2022-10-18T09:05:57.764Z,79.85
2022-10-18T09:08:30.548Z,79.49
2022-10-18T09:11:28.816Z,79.85
2022-10-18T09:14:24.110Z,81.04
2022-10-18T09:17:02.452Z,82.56
2022-10-18T09:20:09.224Z,78.90
2022-10-18T09:22:44.816Z,78.96
2022-10-18T09:25:17.278Z,77.28
2022-10-18T09:27:55.740Z,79.18
2022-10-18T09:30:34.495Z,80.50
2022-10-18T09:33:32.564Z,78.53
2022-10-18T09:36:10.945Z,76.18
2022-10-18T09:38:49.614Z,75.06
2022-10-18T09:41:51.194Z,75.06
2022-10-18T09:44:26.939Z,74.41
2022-10-18T09:47:07.872Z,73.17
2022-10-18T09:49:43.356Z,72.74
2022-10-18T09:52:34.856Z,73.31
2022-10-18T09:55:24.993Z,74.17
2022-10-18T09:57:57.765Z,75.45
2022-10-18T10:00:30.858Z,70.08
2022-10-18T10:03:02.610Z,71.74
2022-10-18T10:05:32.381Z,70.25
2022-10-18T10:08:02.796Z,68.66
2022-10-18T10:13:27.773Z,68.82
2022-10-18T10:16:02.873Z,65.63
2022-10-18T10:18:37.786Z,65.63
2022-10-18T10:21:11.185Z,67.39
2022-10-18T10:23:55.821Z,66.23
2022-10-18T10:26:37.935Z,66.17
2022-10-18T10:29:43.532Z,64.07
2022-10-18T10:32:05.273Z,64.41
2022-10-18T10:34:35.008Z,65.74
2022-10-18T10:37:05.408Z,63.93
2022-10-18T10:39:35.146Z,64.35
2022-10-18T10:42:09.255Z,60.22
2022-10-18T10:44:39.944Z,61.86
2022-10-18T10:47:09.745Z,61.34
2022-10-18T10:49:45.159Z,60.94
2022-10-18T10:52:28.977Z,61.67
2022-10-18T10:54:55.705Z,61.67
2022-10-18T10:57:27.234Z,58.49
2022-10-18T11:00:00.860Z,58.19
2022-10-18T11:02:33.459Z,56.15
2022-10-18T11:05:27.112Z,57.76
2022-10-18T11:07:59.861Z,57.69
2022-10-18T11:10:32.352Z,56.74
2022-10-18T11:13:39.300Z,56.82
2022-10-18T11:16:17.193Z,55.89
2022-10-18T11:18:49.843Z,54.16
2022-10-18T11:21:25.486Z,53.23
2022-10-18T11:23:57.211Z,55.89
2022-10-18T11:26:42.139Z,55.91
2022-10-18T11:29:27.335Z,54.28
2022-10-18T11:32:05.765Z,54.10
2022-10-18T11:34:41.084Z,51.59
2022-10-18T11:37:42.643Z,51.59
2022-10-18T11:40:25.418Z,54.13
2022-10-18T11:43:15.442Z,52.23
2022-10-18T11:46:05.875Z,54.69
2022-10-18T11:48:41.332Z,53.84
2022-10-18T11:51:44.539Z,52.67
2022-10-18T11:54:37.603Z,54.37
2022-10-18T11:57:28.032Z,51.59
2022-10-18T12:00:18.346Z,52.62
2022-10-18T12:03:15.132Z,52.90
2022-10-18T12:05:47.645Z,53.65
2022-10-18T12:08:20.155Z,52.71
2022-10-18T12:11:05.038Z,51.25
2022-10-18T12:13:43.700Z,52.03
2022-10-18T12:16:14.084Z,50.83
2022-10-18T12:18:49.689Z,50.31
2022-10-18T12:21:25.536Z,51.49
2022-10-18T12:23:56.682Z,51.31
2022-10-18T12:26:28.343Z,51.07
2022-10-18T12:29:16.027Z,50.88
2022-10-18T12:31:48.939Z,49.51
2022-10-18T12:34:27.743Z,49.89
2022-10-18T12:37:16.508Z,50.24
2022-10-18T12:40:08.997Z,49.54
2022-10-18T12:42:29.960Z,51.03
2022-10-18T12:45:05.656Z,50.67
2022-10-18T12:47:36.539Z,50.15
2022-10-18T12:50:27.775Z,50.99
2022-10-18T12:53:06.537Z,47.91
2022-10-18T12:55:39.448Z,46.92
2022-10-18T12:58:25.655Z,48.48
2022-10-18T13:00:57.717Z,48.41
2022-10-18T13:03:31.029Z,49.37
2022-10-18T13:06:05.681Z,49.43
2022-10-18T13:08:39.315Z,47.75
2022-10-18T13:11:14.986Z,48.86
2022-10-18T13:14:09.860Z,48.02
2022-10-18T13:16:45.197Z,47.85
2022-10-18T13:19:26.849Z,48.30
2022-10-18T13:22:14.365Z,47.88
2022-10-18T13:24:47.140Z,49.32
2022-10-18T13:27:39.162Z,48.68
2022-10-18T13:30:29.553Z,44.61
2022-10-18T13:33:06.351Z,48.49
2022-10-18T13:35:55.101Z,48.49
2022-10-18T13:38:30.142Z,47.23
2022-10-18T13:41:14.439Z,46.91
2022-10-18T13:43:55.651Z,46.91
2022-10-18T13:46:37.291Z,46.92
2022-10-18T13:49:24.813Z,45.11
2022-10-18T13:52:09.034Z,44.39
2022-10-18T13:54:41.815Z,45.88
2022-10-18T13:57:30.776Z,44.35
2022-10-18T14:00:06.345Z,43.82
2022-10-18T14:03:16.279Z,44.52
2022-10-18T14:05:59.715Z,45.12
2022-10-18T14:08:46.931Z,45.24
2022-10-18T14:11:34.813Z,43.92
2022-10-18T14:14:09.412Z,43.80
2022-10-18T14:16:42.176Z,43.39
2022-10-18T14:19:32.994Z,43.05
2022-10-18T14:22:11.732Z,41.62
2022-10-18T14:24:44.515Z,41.92
2022-10-18T14:27:27.963Z,41.36
2022-10-18T14:30:18.736Z,42.47
2022-10-18T14:32:51.430Z,43.97
2022-10-18T14:35:33.612Z,43.62
2022-10-18T14:38:04.385Z,43.04
2022-10-18T14:40:41.620Z,42.80
2022-10-18T14:43:14.179Z,42.67
2022-10-18T14:45:44.117Z,43.66
2022-10-18T14:48:24.361Z,45.62
2022-10-18T14:51:01.651Z,44.72
2022-10-18T14:53:37.193Z,42.87
2022-10-18T14:56:08.404Z,44.70
2022-10-18T14:58:38.579Z,44.57
2022-10-18T15:01:08.403Z,45.35
2022-10-18T15:03:38.224Z,44.82
2022-10-18T15:06:09.640Z,44.76
2022-10-18T15:08:43.742Z,45.06
2022-10-18T15:11:16.080Z,45.74
2022-10-18T15:13:51.784Z,46.07
2022-10-18T15:16:23.903Z,46.54
2022-10-18T15:19:16.158Z,45.70
2022-10-18T15:22:07.991Z,45.63
2022-10-18T15:24:32.198Z,46.91
2022-10-18T15:27:04.690Z,46.91
2022-10-18T15:29:36.998Z,47.18
2022-10-18T15:32:29.121Z,47.88
2022-10-18T15:35:12.864Z,47.32
2022-10-18T15:37:47.901Z,47.96
2022-10-18T15:40:26.029Z,48.70
2022-10-18T15:42:58.263Z,49.69
2022-10-18T15:45:33.602Z,48.57
2022-10-18T15:48:18.350Z,48.17
2022-10-18T15:50:53.681Z,49.25
2022-10-18T15:53:35.175Z,48.64
2022-10-18T15:56:12.006Z,49.77
2022-10-18T15:58:47.771Z,49.80
2022-10-18T16:01:21.298Z,50.94
2022-10-18T16:03:52.472Z,50.19
2022-10-18T16:06:22.064Z,50.80
2022-10-18T16:08:53.550Z,51.26
2022-10-18T16:11:26.091Z,50.87
2022-10-18T16:13:58.014Z,51.07
2022-10-18T16:16:29.152Z,53.56
2022-10-18T16:18:59.221Z,52.42
2022-10-18T16:21:34.606Z,52.58
2022-10-18T16:24:06.912Z,54.19
2022-10-18T16:26:37.196Z,54.19
2022-10-18T16:29:07.610Z,54.04
2022-10-18T16:31:37.036Z,54.04
2022-10-18T16:34:09.641Z,56.63
2022-10-18T16:36:39.660Z,56.51
2022-10-18T16:39:15.412Z,56.94
2022-10-18T16:41:46.238Z,57.28
2022-10-18T16:44:17.078Z,57.75
2022-10-18T16:46:50.977Z,59.33
2022-10-18T16:49:23.837Z,59.25
2022-10-18T16:51:55.805Z,58.84
2022-10-18T16:54:25.598Z,59.22
2022-10-18T16:56:55.642Z,59.13
2022-10-18T16:59:28.837Z,60.00
2022-10-18T17:01:58.705Z,62.19
2022-10-18T17:04:29.077Z,60.89
2022-10-18T17:06:59.161Z,63.19
2022-10-18T17:09:28.935Z,62.51
2022-10-18T17:11:59.019Z,61.65
2022-10-18T17:14:28.767Z,61.96
2022-10-18T17:16:58.560Z,64.76
2022-10-18T17:19:28.796Z,64.10
2022-10-18T17:22:02.443Z,63.06
2022-10-18T17:24:29.951Z,63.81
2022-10-18T17:26:59.689Z,64.03
2022-10-18T17:29:29.143Z,63.96
2022-10-18T17:31:58.959Z,65.78
2022-10-18T17:34:28.751Z,67.15
2022-10-18T17:36:58.295Z,66.96
2022-10-18T17:39:28.022Z,68.06
2022-10-18T17:41:57.902Z,67.99
2022-10-18T17:44:27.794Z,67.99
2022-10-18T17:46:57.550Z,68.47
2022-10-18T17:49:27.922Z,69.19
2022-10-18T17:51:57.832Z,69.12
2022-10-18T17:54:27.337Z,68.86
2022-10-18T17:56:57.072Z,68.82
2022-10-18T17:59:26.887Z,69.15
2022-10-18T18:01:56.630Z,68.72
2022-10-18T18:04:26.443Z,69.14
2022-10-18T18:06:57.148Z,70.28
2022-10-18T18:09:27.547Z,69.95
2022-10-18T18:11:58.077Z,69.42
2022-10-18T18:14:27.964Z,71.12
2022-10-18T18:16:57.900Z,71.33
2022-10-18T18:19:27.834Z,72.30
2022-10-18T18:21:58.653Z,71.71
2022-10-18T18:24:28.328Z,71.32
2022-10-18T18:26:58.420Z,72.03
2022-10-18T18:29:29.402Z,71.60
2022-10-18T18:31:59.765Z,71.65
2022-10-18T18:34:29.571Z,71.81
2022-10-18T18:36:59.381Z,72.33
2022-10-18T18:39:29.602Z,72.33
2022-10-18T18:41:59.486Z,72.26
2022-10-18T18:44:29.492Z,73.38
2022-10-18T18:46:59.464Z,72.78
2022-10-18T18:49:31.375Z,73.60
2022-10-18T18:52:01.470Z,73.60
2022-10-18T18:54:31.603Z,73.21
2022-10-18T18:57:03.009Z,72.37
2022-10-18T18:59:32.745Z,72.47
2022-10-18T19:02:02.487Z,72.47
2022-10-18T19:04:32.311Z,74.23
2022-10-18T19:07:02.043Z,73.13
2022-10-18T19:09:32.655Z,73.43
2022-10-18T19:12:02.472Z,74.34
2022-10-18T19:14:32.240Z,75.48
2022-10-18T19:17:04.099Z,76.02
2022-10-18T19:19:34.172Z,75.71
2022-10-18T19:22:04.993Z,75.63
2022-10-18T19:24:34.814Z,75.35
2022-10-18T19:27:09.223Z,75.62
2022-10-18T19:29:41.190Z,76.48
2022-10-18T19:32:16.021Z,75.82
2022-10-18T19:34:45.772Z,75.38
2022-10-18T19:37:16.196Z,75.07
2022-10-18T19:39:46.313Z,75.61
2022-10-18T19:42:18.699Z,76.02
2022-10-18T19:44:47.705Z,75.98
2022-10-18T19:47:17.750Z,75.84
2022-10-18T19:49:48.056Z,76.00
2022-10-18T19:52:17.793Z,75.00
2022-10-18T19:54:49.576Z,75.67
2022-10-18T19:57:19.592Z,75.62
2022-10-18T19:59:49.653Z,75.62
2022-10-18T20:02:19.327Z,74.89
2022-10-18T20:04:49.082Z,76.14
2022-10-18T20:07:18.808Z,75.09
2022-10-18T20:09:48.606Z,76.44
2022-10-18T20:12:18.244Z,75.78
2022-10-18T20:14:47.987Z,76.64
2022-10-18T20:17:17.749Z,76.36
2022-10-18T20:19:48.553Z,76.59
2022-10-18T20:22:18.309Z,76.54
2022-10-18T20:24:48.052Z,76.21
2022-10-18T20:27:17.885Z,76.21
2022-10-18T20:29:48.392Z,76.91
2022-10-18T20:32:18.188Z,77.13
2022-10-18T20:34:47.933Z,77.13
2022-10-18T20:37:17.662Z,77.15
2022-10-18T20:39:47.467Z,76.56
2022-10-18T20:42:17.449Z,77.29
2022-10-18T20:44:48.154Z,77.28
2022-10-18T20:47:17.923Z,77.58
2022-10-18T20:49:47.648Z,77.21
2022-10-18T20:52:17.350Z,77.82
2022-10-18T20:54:47.084Z,76.16
2022-10-18T20:57:16.827Z,76.66
2022-10-18T20:59:46.582Z,77.21
2022-10-18T21:02:16.053Z,77.26
2022-10-18T21:04:45.809Z,77.12
2022-10-18T21:07:15.562Z,77.06
2022-10-18T21:09:45.305Z,77.50
2022-10-18T21:12:15.250Z,77.48
2022-10-18T21:14:44.957Z,77.88
2022-10-18T21:17:14.688Z,78.79
2022-10-18T21:19:44.742Z,78.10
2022-10-18T21:22:14.467Z,78.29
2022-10-18T21:24:45.089Z,77.91
2022-10-18T21:27:14.833Z,78.22
2022-10-18T21:29:44.594Z,78.22
2022-10-18T21:32:14.538Z,78.39
2022-10-18T21:34:44.668Z,78.05
2022-10-18T21:37:14.421Z,77.74
2022-10-18T21:39:44.164Z,77.70
2022-10-18T21:42:13.908Z,77.86
2022-10-18T21:44:43.642Z,77.50
2022-10-18T21:47:13.125Z,77.11
2022-10-18T21:49:42.883Z,77.67
2022-10-18T21:52:12.603Z,77.48
2022-10-18T21:54:42.641Z,77.13
2022-10-18T21:57:12.123Z,76.96
2022-10-18T21:59:41.890Z,76.87
2022-10-18T22:02:13.223Z,76.75
2022-10-18T22:04:42.955Z,77.94
2022-10-18T22:07:12.698Z,77.67
2022-10-18T22:09:42.256Z,77.80
2022-10-18T22:12:12.159Z,77.65
2022-10-18T22:14:41.891Z,78.27
2022-10-18T22:17:11.633Z,78.48
2022-10-18T22:19:41.097Z,77.75
2022-10-18T22:22:11.631Z,76.63
2022-10-18T22:24:41.111Z,78.37
2022-10-18T22:27:10.839Z,78.72
2022-10-18T22:29:40.633Z,78.39
2022-10-18T22:32:11.181Z,78.44
2022-10-18T22:34:41.123Z,78.21
2022-10-18T22:37:10.866Z,78.28
2022-10-18T22:39:40.582Z,77.64
2022-10-18T22:42:11.455Z,77.79
2022-10-18T22:44:41.189Z,79.21
2022-10-18T22:47:10.959Z,78.96
2022-10-18T22:49:40.708Z,79.13
2022-10-18T22:52:11.379Z,78.80
2022-10-18T22:54:41.476Z,78.23
2022-10-18T22:57:11.290Z,78.23
2022-10-18T22:59:41.026Z,78.35
2022-10-18T23:02:11.562Z,78.01
2022-10-18T23:04:41.299Z,78.20
2022-10-18T23:07:11.045Z,78.10
2022-10-18T23:12:10.825Z,77.38
2022-10-18T23:14:40.575Z,78.10
2022-10-18T23:17:10.739Z,77.68
2022-10-18T23:19:40.177Z,77.60
2022-10-18T23:22:10.130Z,78.40
2022-10-18T23:24:39.889Z,78.87
2022-10-18T23:27:09.622Z,78.99
2022-10-18T23:29:39.646Z,78.94
2022-10-18T23:32:11.297Z,78.62
2022-10-18T23:34:41.049Z,78.15
2022-10-18T23:37:10.804Z,78.58
2022-10-18T23:39:40.829Z,79.13
2022-10-18T23:42:11.463Z,78.06
2022-10-18T23:44:41.208Z,79.19
2022-10-18T23:47:10.943Z,79.27
2022-10-18T23:49:40.697Z,78.16
2022-10-18T23:52:11.770Z,78.16
2022-10-18T23:54:41.535Z,78.24
2022-10-18T23:57:11.686Z,77.80
2022-10-18T23:59:41.740Z,78.74
